Time;durP1;ratioP1;P1;durP2;ratioP2;P2;SDS_P1;SDS_P2;PMS_P1;PMS_P2;Temp;Humidity;BMP_temperature;BMP_pressure;BME280_temperature;BME280_humidity;BME280_pressure;Samples;Min_cycle;Max_cycle;Signal;HPM_P1;HPM_P2
2023/03/25 00:00:31;;;;;;;37.78;34.45;;;6.00;99.90;;;;;;5226403;28;20029;-73
2023/03/25 00:03:03;;;;;;;38.35;35.78;;;6.10;99.90;;;;;;5226402;28;20064;-71
2023/03/25 00:05:34;;;;;;;38.15;35.65;;;6.10;99.90;;;;;;5226476;28;20032;-65
2023/03/25 00:08:05;;;;;;;32.53;30.52;;;5.90;99.90;;;;;;5226502;28;20048;-72
2023/03/25 00:10:35;;;;;;;31.35;29.42;;;6.10;99.90;;;;;;5226498;28;20116;-73
2023/03/25 00:13:07;;;;;;;34.85;32.63;;;5.80;99.90;;;;;;5226248;28;20423;-73
2023/03/25 00:15:44;;;;;;;35.25;32.85;;;5.90;99.90;;;;;;5228427;28;20025;-73
2023/03/25 00:18:18;;;;;;;33.40;31.17;;;6.00;99.90;;;;;;5247104;28;20430;-73
2023/03/25 00:20:49;;;;;;;36.00;33.53;;;5.70;99.90;;;;;;5246770;28;20029;-73
2023/03/25 00:23:21;;;;;;;31.85;29.75;;;5.60;99.90;;;;;;5228933;28;20387;-72
2023/03/25 00:25:52;;;;;;;30.05;27.60;;;5.60;99.90;;;;;;5246874;28;20111;-73
2023/03/25 00:28:23;;;;;;;29.13;27.30;;;5.70;99.90;;;;;;5246799;28;20135;-65
2023/03/25 00:31:01;;;;;;;28.17;26.17;;;5.60;99.90;;;;;;5246918;28;20190;-73
2023/03/25 00:33:34;;;;;;;29.38;27.50;;;5.30;99.90;;;;;;5246982;28;20028;-73
2023/03/25 00:36:05;;;;;;;30.45;28.45;;;5.60;99.90;;;;;;5246802;28;20098;-72
2023/03/25 00:38:36;;;;;;;29.00;27.02;;;5.50;99.90;;;;;;5246708;28;20025;-72
2023/03/25 00:41:11;;;;;;;30.92;29.02;;;5.60;99.90;;;;;;5246679;28;20020;-72
2023/03/25 00:43:43;;;;;;;28.52;26.83;;;5.30;99.90;;;;;;5228607;28;20036;-73
2023/03/25 00:46:15;;;;;;;27.65;25.65;;;5.30;99.90;;;;;;5246852;28;20052;-71
2023/03/25 00:48:46;;;;;;;30.38;28.58;;;5.30;99.90;;;;;;5228810;28;20028;-73
2023/03/25 00:51:18;;;;;;;27.95;26.15;;;5.10;99.90;;;;;;5246849;28;20078;-73
2023/03/25 00:53:53;;;;;;;28.08;26.27;;;5.40;99.90;;;;;;5246874;28;20025;-72
2023/03/25 00:56:24;;;;;;;34.20;31.33;;;5.60;99.90;;;;;;5246701;28;20081;-73
2023/03/25 00:58:56;;;;;;;30.45;27.75;;;5.40;99.90;;;;;;5250068;28;20463;-70
2023/03/25 01:01:27;;;;;;;29.45;27.40;;;5.20;99.90;;;;;;5250175;28;20020;-72
2023/03/25 01:03:59;;;;;;;29.80;27.77;;;5.30;99.90;;;;;;5250118;28;20036;-73
2023/03/25 01:06:35;;;;;;;33.42;30.77;;;5.10;99.90;;;;;;5250060;28;20100;-72
2023/03/25 01:09:08;;;;;;;31.90;29.40;;;5.40;99.90;;;;;;5250178;28;20032;-69
2023/03/25 01:11:42;;;;;;;31.13;28.73;;;5.10;99.90;;;;;;5250147;28;20009;-73
2023/03/25 01:14:17;;;;;;;30.30;27.45;;;5.20;99.90;;;;;;5232082;28;20438;-65
2023/03/25 01:16:48;;;;;;;30.42;28.33;;;5.40;99.90;;;;;;5249923;28;20032;-73
2023/03/25 01:19:22;;;;;;;30.95;28.65;;;5.10;99.90;;;;;;5249879;28;20017;-68
2023/03/25 01:21:59;;;;;;;32.67;30.20;;;5.40;99.90;;;;;;5241955;28;20357;-73
2023/03/25 01:24:33;;;;;;;31.23;29.13;;;5.20;99.90;;;;;;5229087;28;20045;-73
2023/03/25 01:27:04;;;;;;;31.88;29.77;;;5.40;99.90;;;;;;5229164;28;20083;-73
2023/03/25 01:29:35;;;;;;;31.42;29.25;;;5.40;99.90;;;;;;5229037;28;20041;-72
2023/03/25 01:32:06;;;;;;;32.72;30.55;;;5.00;99.90;;;;;;5229112;28;20522;-72
2023/03/25 01:34:37;;;;;;;31.92;29.50;;;5.30;99.90;;;;;;5228951;28;20021;-73
2023/03/25 01:37:10;;;;;;;34.85;31.95;;;5.30;99.90;;;;;;5228942;28;20098;-73
2023/03/25 01:39:41;;;;;;;35.85;32.92;;;4.90;99.90;;;;;;5228868;28;20056;-73
2023/03/25 01:42:12;;;;;;;31.40;29.20;;;4.80;99.90;;;;;;5228837;28;20049;-72
2023/03/25 01:44:43;;;;;;;32.03;29.85;;;4.90;99.90;;;;;;5228669;28;20041;-73
2023/03/25 01:47:14;;;;;;;29.63;27.42;;;4.40;99.90;;;;;;5228761;28;20492;-72
2023/03/25 01:49:45;;;;;;;29.02;27.00;;;4.80;99.90;;;;;;5228758;28;20388;-72
2023/03/25 01:52:23;;;;;;;30.15;27.92;;;4.80;99.90;;;;;;5228510;28;20108;-73
2023/03/25 01:54:55;;;;;;;26.30;24.52;;;4.70;99.90;;;;;;5210697;28;20025;-70
2023/03/25 01:57:30;;;;;;;30.15;27.95;;;4.50;99.90;;;;;;5228422;28;20108;-73
2023/03/25 02:00:02;;;;;;;29.90;27.67;;;4.80;99.90;;;;;;5228546;28;20032;-72
2023/03/25 02:02:38;;;;;;;27.08;24.95;;;4.80;99.90;;;;;;5228499;28;20025;-73
2023/03/25 02:05:12;;;;;;;30.10;27.52;;;4.30;99.90;;;;;;5228564;28;20457;-70
2023/03/25 02:07:47;;;;;;;29.35;27.23;;;4.20;99.90;;;;;;5228355;28;20445;-73
2023/03/25 02:10:19;;;;;;;29.88;27.58;;;3.90;99.90;;;;;;5227411;28;20362;-73
2023/03/25 02:12:50;;;;;;;27.70;25.70;;;4.30;99.90;;;;;;5210841;28;20056;-73
2023/03/25 02:15:21;;;;;;;25.13;23.25;;;4.40;99.90;;;;;;5228269;28;20067;-73
2023/03/25 02:18:16;;;;;;;23.58;21.90;;;4.20;99.90;;;;;;5228365;28;20512;-66
2023/03/25 02:20:53;;;;;;;24.38;22.58;;;4.00;99.90;;;;;;5228199;28;20033;-73
2023/03/25 02:23:27;;;;;;;25.80;23.98;;;4.00;99.90;;;;;;5228186;28;20078;-73
2023/03/25 02:26:28;;;;;;;24.77;23.08;;;3.70;99.90;;;;;;5230517;28;20083;-65
2023/03/25 02:29:17;;;;;;;24.80;23.10;;;3.70;99.90;;;;;;5226573;28;20045;-72
2023/03/25 02:31:57;;;;;;;24.52;22.92;;;3.90;99.90;;;;;;5227957;28;20388;-72
2023/03/25 02:35:06;;;;;;;25.08;23.38;;;3.70;99.90;;;;;;5227664;28;20025;-73
2023/03/25 02:38:00;;;;;;;23.33;21.73;;;4.10;99.90;;;;;;5227709;28;20025;-73
2023/03/25 02:40:51;;;;;;;25.65;23.98;;;3.70;99.90;;;;;;5227632;28;20043;-73
2023/03/25 02:43:33;;;;;;;24.38;22.77;;;4.00;99.90;;;;;;5227752;28;20079;-73
2023/03/25 02:46:08;;;;;;;25.45;23.75;;;4.10;99.90;;;;;;5227589;28;20055;-73
2023/03/25 02:49:11;;;;;;;24.48;22.67;;;3.80;99.90;;;;;;5239546;28;20115;-73
2023/03/25 02:51:52;;;;;;;24.08;22.58;;;4.00;99.90;;;;;;5190744;28;20476;-72
2023/03/25 02:54:26;;;;;;;23.17;21.75;;;4.00;99.90;;;;;;5248183;28;20040;-73
2023/03/25 02:56:58;;;;;;;22.77;21.25;;;4.00;99.90;;;;;;5247860;28;20040;-73
2023/03/25 02:59:32;;;;;;;24.83;23.13;;;3.90;99.90;;;;;;5247974;28;20029;-72
2023/03/25 03:02:10;;;;;;;25.95;24.15;;;4.00;99.90;;;;;;5247940;28;20142;-73
2023/03/25 03:04:50;;;;;;;26.05;24.27;;;3.90;99.90;;;;;;5247940;28;20041;-73
2023/03/25 03:07:31;;;;;;;24.95;23.35;;;4.00;99.90;;;;;;5247886;28;20372;-73
2023/03/25 03:10:25;;;;;;;26.80;24.52;;;3.60;99.90;;;;;;5247891;28;20112;-65
2023/03/25 03:13:30;;;;;;;31.75;28.92;;;3.90;99.90;;;;;;5247616;28;20035;-73
2023/03/25 03:16:23;;;;;;;29.02;26.90;;;3.80;99.90;;;;;;5229703;28;20028;-72
2023/03/25 03:19:33;;;;;;;25.58;23.70;;;3.50;99.90;;;;;;5247756;28;20028;-73
2023/03/25 03:22:24;;;;;;;29.63;27.42;;;3.20;99.90;;;;;;5247499;28;20024;-73
2023/03/25 03:24:58;;;;;;;29.58;27.27;;;3.40;99.90;;;;;;5247748;28;20044;-72
2023/03/25 03:27:46;;;;;;;27.00;25.20;;;3.60;99.90;;;;;;5247427;28;20036;-72
2023/03/25 03:30:47;;;;;;;26.23;24.33;;;3.30;99.90;;;;;;5247632;28;20078;-73
2023/03/25 03:33:25;;;;;;;;;;;3.60;99.90;;;;;;5226619;28;20438;-73
2023/03/25 03:36:19;;;;;;;27.95;26.08;;;3.40;99.90;;;;;;5247435;28;19912;-72
2023/03/25 03:38:55;;;;;;;26.77;24.92;;;3.40;99.90;;;;;;5247455;28;20073;-72
2023/03/25 03:41:27;;;;;;;27.75;25.85;;;3.30;99.90;;;;;;5247256;28;20056;-71
2023/03/25 03:44:06;;;;;;;28.48;26.48;;;3.50;99.90;;;;;;5247183;28;20037;-65
2023/03/25 03:46:53;;;;;;;29.35;27.27;;;3.50;99.90;;;;;;5243296;28;20024;-73
2023/03/25 03:49:33;;;;;;;26.60;24.70;;;3.30;99.90;;;;;;5247273;28;20032;-73
2023/03/25 03:52:20;;;;;;;29.63;27.38;;;3.40;99.90;;;;;;5247231;28;20016;-67
2023/03/25 03:54:57;;;;;;;32.08;29.38;;;3.10;99.90;;;;;;5229275;28;20025;-72
2023/03/25 03:57:37;;;;;;;34.10;31.20;;;3.30;99.90;;;;;;5220649;28;20473;-72
2023/03/25 04:00:14;;;;;;;;;;;3.30;99.90;;;;;;5226826;28;20029;-72
2023/03/25 04:02:57;;;;;;;30.23;28.02;;;3.20;99.90;;;;;;5226233;28;19904;-72
2023/03/25 04:05:31;;;;;;;29.67;27.55;;;3.10;99.90;;;;;;5226306;28;20091;-71
2023/03/25 04:08:22;;;;;;;29.15;27.00;;;3.30;99.90;;;;;;5226332;28;20030;-73
2023/03/25 04:11:03;;;;;;;28.80;26.67;;;3.30;99.90;;;;;;5226274;28;20083;-71
2023/03/25 04:13:41;;;;;;;28.92;26.70;;;3.40;99.90;;;;;;5226180;28;20380;-73
2023/03/25 04:16:12;;;;;;;28.33;26.33;;;3.60;99.90;;;;;;5226075;28;20029;-73
2023/03/25 04:18:46;;;;;;;32.03;29.58;;;3.30;99.90;;;;;;5226146;28;20017;-72
2023/03/25 04:21:17;;;;;;;33.47;30.58;;;3.10;99.90;;;;;;5226142;28;20057;-73
2023/03/25 04:23:48;;;;;;;32.72;30.15;;;3.00;99.90;;;;;;5246752;28;20068;-73
2023/03/25 04:26:20;;;;;;;31.50;29.00;;;3.20;99.90;;;;;;5246732;28;20078;-72
2023/03/25 04:28:51;;;;;;;31.33;28.95;;;3.10;99.90;;;;;;5228802;28;20052;-65
2023/03/25 04:31:24;;;;;;;35.78;32.85;;;3.10;99.90;;;;;;5246831;28;20036;-68
2023/03/25 04:33:56;;;;;;;33.65;30.85;;;3.00;99.90;;;;;;5250641;28;20033;-73
2023/03/25 04:36:27;;;;;;;35.58;32.67;;;3.20;99.90;;;;;;5251067;28;20025;-73
2023/03/25 04:38:58;;;;;;;35.72;32.63;;;3.50;99.90;;;;;;5250926;28;20404;-73
2023/03/25 04:41:30;;;;;;;35.17;31.95;;;3.30;99.90;;;;;;5250834;28;20021;-73
2023/03/25 04:44:01;;;;;;;37.63;34.10;;;3.40;99.90;;;;;;5250755;28;20453;-73
2023/03/25 04:46:33;;;;;;;33.17;30.35;;;3.50;99.90;;;;;;5250688;28;20107;-68
2023/03/25 04:49:12;;;;;;;35.88;32.63;;;3.50;99.90;;;;;;5250641;28;20346;-73
2023/03/25 04:51:44;;;;;;;37.03;33.38;;;3.40;99.90;;;;;;5250530;28;20024;-73
2023/03/25 04:54:14;;;;;;;36.50;33.33;;;3.40;99.90;;;;;;5232724;28;20527;-73
2023/03/25 04:56:46;;;;;;;37.53;34.17;;;3.60;99.90;;;;;;5250340;28;20070;-72
2023/03/25 04:59:18;;;;;;;38.15;34.35;;;3.80;99.90;;;;;;5250425;28;20031;-72
2023/03/25 05:01:51;;;;;;;46.10;40.15;;;3.90;99.90;;;;;;5250220;28;20036;-73
2023/03/25 05:04:23;;;;;;;45.58;40.97;;;4.10;99.90;;;;;;5250291;28;20037;-73
2023/03/25 05:06:55;;;;;;;40.90;36.17;;;4.10;99.90;;;;;;5250139;28;20020;-72
2023/03/25 05:09:28;;;;;;;42.50;38.00;;;4.10;99.90;;;;;;5250115;28;20044;-73
2023/03/25 05:11:59;;;;;;;40.47;36.38;;;4.30;99.90;;;;;;5250211;28;20119;-73
2023/03/25 05:14:29;;;;;;;41.65;37.33;;;4.40;99.90;;;;;;5250130;28;20111;-72
2023/03/25 05:17:00;;;;;;;39.90;35.58;;;4.50;99.90;;;;;;5232059;28;20377;-65
2023/03/25 05:19:33;;;;;;;40.85;36.78;;;4.80;99.90;;;;;;5249836;28;20028;-73
2023/03/25 05:22:04;;;;;;;41.80;37.70;;;5.20;99.90;;;;;;5231626;28;20033;-73
2023/03/25 05:24:36;;;;;;;44.45;40.53;;;5.30;99.90;;;;;;5229329;28;20468;-73
2023/03/25 05:27:06;;;;;;;46.38;42.42;;;5.20;99.90;;;;;;5210845;28;20045;-73
2023/03/25 05:29:37;;;;;;;50.42;45.95;;;5.40;99.90;;;;;;5228976;28;20086;-73
2023/03/25 05:32:08;;;;;;;56.60;51.60;;;5.60;99.90;;;;;;5229160;28;20048;-73
2023/03/25 05:34:39;;;;;;;53.08;48.25;;;5.90;99.90;;;;;;5229010;28;20079;-70
2023/03/25 05:37:10;;;;;;;55.05;50.15;;;6.00;99.90;;;;;;5228893;28;20028;-72
2023/03/25 05:39:41;;;;;;;55.38;50.50;;;6.10;99.90;;;;;;5228746;28;20415;-73
2023/03/25 05:42:12;;;;;;;66.45;59.90;;;5.90;99.90;;;;;;5228801;28;20017;-73
2023/03/25 05:44:45;;;;;;;69.97;63.53;;;6.50;99.90;;;;;;5228586;28;20408;-72
2023/03/25 05:47:22;;;;;;;61.50;56.22;;;6.40;99.90;;;;;;5228794;28;20104;-72
2023/03/25 05:49:53;;;;;;;58.83;53.70;;;6.80;99.90;;;;;;5228795;28;20021;-72
2023/03/25 05:52:24;;;;;;;63.53;57.72;;;7.50;99.90;;;;;;5210801;28;20469;-73
2023/03/25 05:54:55;;;;;;;63.22;57.70;;;7.50;99.90;;;;;;5228785;28;20025;-72
2023/03/25 05:57:26;;;;;;;68.50;62.67;;;7.60;99.90;;;;;;5228721;28;20373;-72
2023/03/25 05:59:56;;;;;;;70.55;64.90;;;7.90;99.90;;;;;;5228772;28;20176;-72
2023/03/25 06:02:27;;;;;;;69.85;63.92;;;8.00;99.90;;;;;;5231467;28;20028;-72
2023/03/25 06:04:58;;;;;;;69.45;63.83;;;8.10;99.90;;;;;;5243068;28;20044;-73
2023/03/25 06:07:29;;;;;;;70.15;64.15;;;8.40;99.90;;;;;;5228382;28;20017;-73
2023/03/25 06:10:00;;;;;;;67.72;62.42;;;8.50;99.90;;;;;;5234781;28;20037;-73
2023/03/25 06:12:37;;;;;;;59.67;54.67;;;8.80;99.90;;;;;;5248769;28;20012;-73
2023/03/25 06:15:09;;;;;;;60.97;55.78;;;8.60;99.90;;;;;;5230916;28;20024;-73
2023/03/25 06:17:40;;;;;;;62.85;57.35;;;8.80;99.90;;;;;;5248875;28;20480;-72
2023/03/25 06:20:15;;;;;;;60.10;54.80;;;9.10;99.90;;;;;;5248589;28;20062;-72
2023/03/25 06:22:46;;;;;;;55.88;50.53;;;9.50;99.90;;;;;;5248686;28;20028;-72
2023/03/25 06:25:20;;;;;;;53.50;48.58;;;10.10;99.90;;;;;;5248580;28;20045;-66
2023/03/25 06:27:51;;;;;;;49.47;44.92;;;10.20;99.90;;;;;;5230355;28;20048;-76
2023/03/25 06:30:22;;;;;;;51.92;47.53;;;10.40;99.90;;;;;;5230029;28;20037;-65
2023/03/25 06:32:54;;;;;;;51.42;46.80;;;10.60;99.90;;;;;;5227844;28;20020;-72
2023/03/25 06:35:25;;;;;;;48.40;44.17;;;10.70;99.90;;;;;;5227783;28;20025;-75
2023/03/25 06:37:56;;;;;;;49.60;45.60;;;10.50;99.90;;;;;;5227663;28;20427;-76
2023/03/25 06:40:27;;;;;;;52.03;47.70;;;11.10;99.90;;;;;;5227119;28;20028;-70
2023/03/25 06:42:58;;;;;;;52.63;48.63;;;11.10;99.90;;;;;;5237939;28;20024;-68
2023/03/25 06:45:29;;;;;;;52.47;48.33;;;11.60;99.90;;;;;;5238298;28;20434;-75
2023/03/25 06:48:00;;;;;;;54.72;50.63;;;11.90;99.90;;;;;;5227522;28;20075;-67
2023/03/25 06:50:31;;;;;;;54.90;50.70;;;12.30;99.90;;;;;;5234107;28;20033;-67
2023/03/25 06:53:02;;;;;;;59.35;54.55;;;12.40;99.90;;;;;;5240468;28;20366;-76
2023/03/25 06:55:33;;;;;;;79.55;73.00;;;12.70;99.90;;;;;;5235230;28;20047;-73
2023/03/25 06:58:04;;;;;;;59.13;54.40;;;12.90;99.90;;;;;;5235902;28;20032;-74
2023/03/25 07:00:36;;;;;;;59.78;54.85;;;13.00;99.90;;;;;;5209434;28;20075;-72
2023/03/25 07:03:07;;;;;;;53.17;49.22;;;13.00;99.90;;;;;;5227003;28;20500;-75
2023/03/25 07:05:41;;;;;;;51.42;47.67;;;13.00;99.90;;;;;;5227093;28;20070;-76
2023/03/25 07:08:12;;;;;;;48.10;44.40;;;13.10;99.90;;;;;;5227156;28;20025;-75
2023/03/25 07:10:42;;;;;;;46.67;43.13;;;13.40;99.90;;;;;;5227673;28;20029;-74
2023/03/25 07:13:13;;;;;;;46.65;43.22;;;13.30;99.90;;;;;;5235331;28;20033;-75
2023/03/25 07:15:44;;;;;;;46.92;43.45;;;13.50;99.90;;;;;;5238873;28;20072;-66
2023/03/25 07:18:15;;;;;;;48.85;44.70;;;13.70;99.90;;;;;;5230010;28;20395;-66
2023/03/25 07:20:46;;;;;;;43.53;40.40;;;14.20;99.90;;;;;;5247606;28;20027;-66
2023/03/25 07:23:17;;;;;;;43.47;40.30;;;14.30;99.90;;;;;;5247909;28;20502;-65
2023/03/25 07:25:48;;;;;;;41.97;38.88;;;14.50;99.90;;;;;;5247570;28;20033;-66
2023/03/25 07:28:19;;;;;;;39.45;36.72;;;14.70;99.90;;;;;;5247503;28;20682;-65
2023/03/25 07:30:50;;;;;;;34.42;32.22;;;14.60;99.90;;;;;;5230103;28;20032;-66
2023/03/25 07:33:21;;;;;;;28.23;26.13;;;14.90;99.90;;;;;;5235496;28;20486;-68
2023/03/25 07:35:52;;;;;;;34.88;32.33;;;15.00;99.90;;;;;;5226656;28;20025;-72
2023/03/25 07:38:22;;;;;;;30.38;28.15;;;15.30;99.90;;;;;;5226778;28;20107;-73
2023/03/25 07:40:54;;;;;;;31.33;29.13;;;15.30;99.90;;;;;;5235781;28;20028;-68
2023/03/25 07:43:25;;;;;;;32.25;30.05;;;15.30;99.90;;;;;;5229294;28;20170;-71
2023/03/25 07:45:56;;;;;;;28.50;26.70;;;15.70;99.90;;;;;;5241741;28;20123;-66
2023/03/25 07:48:27;;;;;;;27.88;26.05;;;15.50;99.90;;;;;;5228095;28;20021;-73
2023/03/25 07:50:57;;;;;;;30.63;28.63;;;15.60;99.90;;;;;;5235881;28;20031;-67
2023/03/25 07:53:28;;;;;;;26.60;24.90;;;15.80;99.90;;;;;;5237723;28;20178;-80
2023/03/25 07:55:59;;;;;;;94.35;75.80;;;16.00;99.90;;;;;;5230632;28;20035;-67
2023/03/25 07:58:30;;;;;;;20.05;18.75;;;15.90;99.90;;;;;;5238301;28;20028;-77
2023/03/25 08:01:01;;;;;;;17.75;16.63;;;16.10;99.90;;;;;;5232600;28;20521;-75
2023/03/25 08:03:32;;;;;;;18.50;17.40;;;16.20;99.90;;;;;;5223966;28;20040;-76
2023/03/25 08:06:03;;;;;;;19.90;18.63;;;16.50;99.90;;;;;;5224874;28;20029;-65
2023/03/25 08:08:34;;;;;;;21.05;19.58;;;16.30;99.90;;;;;;5229648;28;20029;-75
2023/03/25 08:11:05;;;;;;;24.75;23.15;;;16.70;99.90;;;;;;5230735;28;20029;-77
2023/03/25 08:13:36;;;;;;;18.33;17.13;;;16.70;99.90;;;;;;5230551;28;20037;-76
2023/03/25 08:16:14;;;;;;;22.70;21.08;;;16.70;99.90;;;;;;5230475;28;20021;-66
2023/03/25 08:18:51;;;;;;;18.40;17.10;;;16.90;99.90;;;;;;5230389;28;20033;-75
2023/03/25 08:21:26;;;;;;;20.73;19.38;;;16.90;99.90;;;;;;5230552;28;20021;-66
2023/03/25 08:24:00;;;;;;;20.92;19.52;;;17.20;99.90;;;;;;5230465;28;20461;-77
2023/03/25 08:26:33;;;;;;;20.90;19.25;;;17.30;99.90;;;;;;5230539;28;20029;-77
2023/03/25 08:29:04;;;;;;;22.13;20.63;;;17.10;99.90;;;;;;5230399;28;20164;-77
2023/03/25 08:31:37;;;;;;;23.65;22.15;;;16.90;99.90;;;;;;5230446;28;20115;-74
2023/03/25 08:34:08;;;;;;;22.13;20.63;;;16.90;99.90;;;;;;5230151;28;20025;-68
2023/03/25 08:36:39;;;;;;;23.40;21.80;;;17.20;99.90;;;;;;5230073;28;20044;-77
2023/03/25 08:39:10;;;;;;;20.58;19.27;;;17.30;99.90;;;;;;5230072;28;20029;-76
2023/03/25 08:41:41;;;;;;;18.58;17.38;;;17.80;99.90;;;;;;5230159;28;20381;-69
2023/03/25 08:44:12;;;;;;;19.83;18.48;;;17.50;99.90;;;;;;5212281;28;20036;-66
2023/03/25 08:46:43;;;;;;;16.92;15.73;;;17.90;99.90;;;;;;5229878;28;20021;-77
2023/03/25 08:49:14;;;;;;;19.35;17.95;;;18.00;99.90;;;;;;5229839;28;20106;-77
2023/03/25 08:51:45;;;;;;;19.73;18.25;;;17.90;99.90;;;;;;5229824;28;20461;-73
2023/03/25 08:54:16;;;;;;;19.90;18.30;;;17.90;99.90;;;;;;5229805;28;20083;-77
2023/03/25 08:56:46;;;;;;;19.80;18.27;;;17.70;99.90;;;;;;5229728;28;20047;-76
2023/03/25 08:59:17;;;;;;;18.20;16.70;;;17.90;99.90;;;;;;5229753;28;20029;-77
2023/03/25 09:01:48;;;;;;;16.52;15.23;;;18.00;99.90;;;;;;5229683;28;20029;-77
2023/03/25 09:04:19;;;;;;;15.02;13.73;;;18.70;99.90;;;;;;5229558;28;20431;-77
2023/03/25 09:06:50;;;;;;;15.43;14.23;;;18.70;99.90;;;;;;5229497;28;20104;-70
2023/03/25 09:09:21;;;;;;;15.23;14.02;;;18.80;99.90;;;;;;5229499;28;20036;-67
2023/03/25 09:11:52;;;;;;;16.13;14.93;;;18.60;97.90;;;;;;5229536;28;20025;-77
2023/03/25 09:14:22;;;;;;;17.25;15.65;;;18.40;95.90;;;;;;5228038;28;20055;-77
2023/03/25 09:16:53;;;;;;;20.27;18.40;;;18.30;98.30;;;;;;5211445;28;20028;-77
2023/03/25 09:19:25;;;;;;;18.85;17.45;;;19.00;99.70;;;;;;5228891;28;20793;-77
2023/03/25 09:21:55;;;;;;;37.55;34.83;;;18.80;96.90;;;;;;5229156;28;20055;-76
2023/03/25 09:24:26;;;;;;;21.38;19.77;;;18.70;96.60;;;;;;5229020;28;20451;-76
2023/03/25 09:26:57;;;;;;;22.45;20.27;;;18.60;98.40;;;;;;5228996;28;20041;-77
2023/03/25 09:29:28;;;;;;;20.92;19.17;;;18.80;92.90;;;;;;5229146;28;20033;-76
2023/03/25 09:31:59;;;;;;;20.98;19.42;;;19.00;91.00;;;;;;5229151;28;20021;-76
2023/03/25 09:34:31;;;;;;;19.17;17.88;;;19.00;92.10;;;;;;5229084;28;20067;-76
2023/03/25 09:37:03;;;;;;;22.83;21.23;;;18.90;88.30;;;;;;5229138;28;20033;-77
2023/03/25 09:39:34;;;;;;;19.13;17.88;;;19.40;89.60;;;;;;5229123;28;20056;-75
2023/03/25 09:42:07;;;;;;;16.67;15.57;;;19.70;97.20;;;;;;5229280;28;20428;-76
2023/03/25 09:44:44;;;;;;;20.55;19.00;;;19.50;89.80;;;;;;5228917;28;20064;-76
2023/03/25 09:47:17;;;;;;;15.45;14.15;;;19.70;92.00;;;;;;5229019;28;20104;-77
2023/03/25 09:49:52;;;;;;;17.75;16.27;;;19.70;91.40;;;;;;5228856;28;20029;-66
2023/03/25 09:52:29;;;;;;;17.23;15.40;;;19.60;93.10;;;;;;5228753;28;20028;-75
2023/03/25 09:55:05;;;;;;;17.38;15.68;;;19.90;95.00;;;;;;5228964;28;20106;-76
2023/03/25 09:57:48;;;;;;;15.43;13.85;;;19.90;95.70;;;;;;5228670;28;20029;-77
2023/03/25 10:00:22;;;;;;;18.27;16.88;;;19.90;92.70;;;;;;5228692;28;20021;-77
2023/03/25 10:02:59;;;;;;;21.10;15.80;;;19.70;95.20;;;;;;5228635;28;20078;-67
2023/03/25 10:05:48;;;;;;;16.55;15.25;;;20.30;97.00;;;;;;5228679;28;20033;-77
2023/03/25 10:08:29;;;;;;;19.27;17.52;;;20.10;90.10;;;;;;5228687;28;20807;-78
2023/03/25 10:11:24;;;;;;;32.30;30.02;;;20.60;90.20;;;;;;5228562;28;20033;-75
2023/03/25 10:14:16;;;;;;;17.80;16.30;;;19.90;90.90;;;;;;5228387;28;20029;-77
2023/03/25 10:16:52;;;;;;;17.15;15.85;;;20.00;90.30;;;;;;5228227;28;20057;-66
2023/03/25 10:19:58;;;;;;;22.65;20.92;;;20.60;88.50;;;;;;5228246;28;20029;-76
2023/03/25 10:22:48;;;;;;;19.52;17.92;;;20.50;86.60;;;;;;5143837;28;20549;-77
2023/03/25 10:25:23;;;;;;;16.80;15.68;;;20.80;91.80;;;;;;5227908;28;20037;-66
2023/03/25 10:27:57;;;;;;;21.17;19.58;;;20.80;82.20;;;;;;5227824;28;20060;-76
2023/03/25 10:30:34;;;;;;;19.73;18.33;;;20.90;82.40;;;;;;5226928;28;20025;-77
2023/03/25 10:33:26;;;;;;;21.00;19.52;;;21.70;83.70;;;;;;5227980;28;20037;-75
2023/03/25 10:35:58;;;;;;;28.35;26.60;;;20.90;77.60;;;;;;5227850;28;20028;-76
2023/03/25 10:38:32;;;;;;;29.35;27.27;;;20.30;77.90;;;;;;5227771;28;20029;-76
2023/03/25 10:41:36;;;;;;;26.25;24.23;;;20.60;77.10;;;;;;5209705;28;20481;-77
2023/03/25 10:44:11;;;;;;;24.65;22.90;;;20.90;75.70;;;;;;5221623;28;20083;-76
2023/03/25 10:46:59;;;;;;;33.40;31.35;;;21.00;72.90;;;;;;5227629;28;20082;-77
2023/03/25 10:49:32;;;;;;;29.10;27.27;;;21.20;75.50;;;;;;5227821;28;20033;-77
2023/03/25 10:52:03;;;;;;;31.75;29.85;;;21.10;71.90;;;;;;5227522;28;20120;-77
2023/03/25 10:54:41;;;;;;;26.85;25.30;;;21.80;74.40;;;;;;5227767;28;20124;-77
2023/03/25 10:57:20;;;;;;;18.90;17.73;;;22.40;74.00;;;;;;5227740;28;20047;-78
2023/03/25 10:59:51;;;;;;;10.90;9.85;;;22.70;76.40;;;;;;5227713;28;20025;-77
2023/03/25 11:02:24;;;;;;;8.15;7.47;;;21.80;68.50;;;;;;5227596;28;20021;-66
2023/03/25 11:04:59;;;;;;;8.20;7.38;;;22.10;72.60;;;;;;5227178;28;20037;-76
2023/03/25 11:07:40;;;;;;;11.90;10.95;;;22.30;77.20;;;;;;5227359;28;20021;-77
2023/03/25 11:10:21;;;;;;;8.10;7.40;;;21.30;66.40;;;;;;5227224;28;20021;-77
2023/03/25 11:12:53;;;;;;;9.32;8.35;;;21.50;66.40;;;;;;5227176;28;20086;-76
2023/03/25 11:15:29;;;;;;;9.52;8.52;;;22.00;69.10;;;;;;5227025;28;20017;-66
2023/03/25 11:18:19;;;;;;;10.52;8.90;;;22.70;77.60;;;;;;5227032;28;20083;-77
2023/03/25 11:21:00;;;;;;;9.60;8.70;;;21.90;66.20;;;;;;5226943;28;20451;-77
2023/03/25 11:23:34;;;;;;;10.13;9.32;;;21.90;70.00;;;;;;5227000;28;20029;-76
2023/03/25 11:26:24;;;;;;;12.07;10.95;;;21.70;71.20;;;;;;5226895;28;20480;-76
2023/03/25 11:29:04;;;;;;;;;;;21.60;70.10;;;;;;5227216;28;20538;-75
2023/03/25 11:31:39;;;;;;;11.02;10.13;;;21.40;67.70;;;;;;5226867;28;20003;-73
2023/03/25 11:34:18;;;;;;;30.98;28.77;;;21.70;67.00;;;;;;5226773;28;20060;-76
2023/03/25 11:37:05;;;;;;;11.85;10.95;;;21.40;67.00;;;;;;5226659;28;20029;-75
2023/03/25 11:39:41;;;;;;;12.07;10.98;;;21.70;69.50;;;;;;5226778;28;20095;-76
2023/03/25 11:42:21;;;;;;;9.98;9.00;;;21.80;66.50;;;;;;5226531;28;20090;-77
2023/03/25 11:44:53;;;;;;;9.38;8.52;;;21.70;68.30;;;;;;5226581;28;20033;-77
2023/03/25 11:47:30;;;;;;;8.35;7.53;;;22.80;69.80;;;;;;5226554;28;20017;-78
2023/03/25 11:50:01;;;;;;;7.93;7.22;;;22.50;66.80;;;;;;5226537;28;20480;-77
2023/03/25 11:52:39;;;;;;;10.75;9.85;;;22.00;63.20;;;;;;5226509;28;20143;-78
2023/03/25 11:55:31;;;;;;;13.38;8.57;;;22.60;66.40;;;;;;5231961;28;20074;-67
2023/03/25 11:58:03;;;;;;;12.63;9.73;;;22.40;70.30;;;;;;5243378;28;20077;-67
2023/03/25 12:00:39;;;;;;;6.95;6.25;;;22.30;70.10;;;;;;5222049;28;20048;-66
2023/03/25 12:03:13;;;;;;;8.35;7.65;;;22.60;66.20;;;;;;5244016;28;20021;-73
2023/03/25 12:06:06;;;;;;;6.80;6.20;;;23.40;67.70;;;;;;5226295;28;20025;-67
2023/03/25 12:08:55;;;;;;;9.70;7.88;;;22.30;65.90;;;;;;5226488;28;20067;-67
2023/03/25 12:11:47;;;;;;;9.90;8.32;;;22.50;69.10;;;;;;5208748;28;20025;-71
2023/03/25 12:14:36;;;;;;;7.25;6.05;;;22.20;71.20;;;;;;5226590;28;20091;-74
2023/03/25 12:17:17;;;;;;;6.78;5.22;;;22.50;66.20;;;;;;5226340;28;20021;-74
2023/03/25 12:20:10;;;;;;;10.95;7.90;;;22.40;66.80;;;;;;5226019;28;20029;-67
2023/03/25 12:23:00;;;;;;;11.35;8.45;;;22.30;67.30;;;;;;5226535;28;20036;-74
2023/03/25 12:25:46;;;;;;;;;;;22.00;70.70;;;;;;5226576;28;20378;-74
2023/03/25 12:28:29;;;;;;;11.63;9.07;;;22.10;71.40;;;;;;5251553;28;20006;-70
2023/03/25 12:31:31;;;;;;;11.68;9.02;;;22.50;71.80;;;;;;5267860;28;20024;-76
2023/03/25 12:34:25;;;;;;;12.23;9.00;;;22.40;71.20;;;;;;5267888;28;20035;-75
2023/03/25 12:37:04;;;;;;;14.63;9.77;;;22.40;72.50;;;;;;5267838;28;20369;-74
2023/03/25 12:39:52;;;;;;;11.00;8.53;;;22.60;73.00;;;;;;5267716;28;20027;-72
2023/03/25 12:42:53;;;;;;;12.88;8.27;;;22.90;71.60;;;;;;5267806;28;20307;-75
2023/03/25 12:45:44;;;;;;;23.65;21.70;;;22.20;71.10;;;;;;5267785;28;20036;-67
2023/03/25 12:48:24;;;;;;;11.40;9.15;;;22.00;69.30;;;;;;5267655;28;20130;-72
2023/03/25 12:51:13;;;;;;;32.42;29.85;;;22.20;69.60;;;;;;5267645;28;20032;-71
2023/03/25 12:53:53;;;;;;;9.43;7.90;;;22.20;69.90;;;;;;5269401;28;20055;-73
2023/03/25 12:56:56;;;;;;;8.98;7.68;;;22.80;72.90;;;;;;5228877;28;20452;-66
2023/03/25 13:00:06;;;;;;;11.15;8.65;;;23.00;70.50;;;;;;5236965;28;20037;-66
2023/03/25 13:03:17;;;;;;;12.43;10.02;;;22.60;72.50;;;;;;5174576;28;20461;-68
2023/03/25 13:05:59;;;;;;;14.10;9.70;;;22.80;74.30;;;;;;5237897;28;20434;-67
2023/03/25 13:08:52;;;;;;;13.43;12.02;;;22.30;75.30;;;;;;5244997;28;20383;-68
2023/03/25 13:11:27;;;;;;;15.18;12.23;;;22.40;73.40;;;;;;5242361;28;20033;-65
2023/03/25 13:14:03;;;;;;;12.25;9.57;;;21.80;73.10;;;;;;5234776;28;20476;-69
2023/03/25 13:16:37;;;;;;;16.05;11.88;;;22.10;74.10;;;;;;5239917;28;20031;-75
2023/03/25 13:19:24;;;;;;;28.90;26.48;;;22.10;75.50;;;;;;5239905;28;20078;-76
2023/03/25 13:22:04;;;;;;;13.50;10.98;;;22.00;74.90;;;;;;5239162;28;20027;-76